Time;durP1;ratioP1;P1;durP2;ratioP2;P2;SDS_P1;SDS_P2;PMS_P1;PMS_P2;Temp;Humidity;BMP_temperature;BMP_pressure;BME280_temperature;BME280_humidity;BME280_pressure;Samples;Min_cycle;Max_cycle;Signal;HPM_P1;HPM_P2
2022/02/08 00:01:20;;;;;;;7.45;2.30;;;;;;;3.94;70.07;100681.72;5069546;28;20052;-68
2022/02/08 00:03:47;;;;;;;9.98;2.60;;;;;;;4.02;70.05;100695.41;5069110;28;20047;-68
2022/02/08 00:08:38;;;;;;;10.18;2.72;;;;;;;3.92;70.60;100713.66;5069221;28;20092;-68
2022/02/08 00:11:04;;;;;;;8.70;2.40;;;;;;;3.86;70.57;100697.19;5069271;28;20021;-68
2022/02/08 00:13:30;;;;;;;8.75;2.45;;;;;;;3.98;69.52;100704.47;5069177;28;20028;-68
2022/02/08 00:15:55;;;;;;;8.35;2.10;;;;;;;3.98;69.47;100697.38;5068893;28;20036;-68
2022/02/08 00:18:21;;;;;;;10.65;2.85;;;;;;;4.12;68.92;100710.75;5068248;28;20044;-72
2022/02/08 00:20:46;;;;;;;5.45;2.10;;;;;;;4.02;69.49;100706.88;5069426;28;20479;-72
2022/02/08 00:23:11;;;;;;;9.68;2.88;;;;;;;4.03;69.29;100716.56;5069448;28;20169;-73
2022/02/08 00:25:37;;;;;;;11.60;2.30;;;;;;;3.96;69.64;100720.50;5068070;28;20036;-72
2022/02/08 00:28:03;;;;;;;10.18;2.88;;;;;;;3.84;70.17;100712.34;5068918;28;20027;-73
2022/02/08 00:30:28;;;;;;;10.20;3.13;;;;;;;4.01;69.45;100722.91;5069505;28;20388;-72
2022/02/08 00:32:54;;;;;;;7.95;2.15;;;;;;;3.88;69.81;100725.38;5068033;28;20036;-73
2022/02/08 00:35:20;;;;;;;9.85;2.25;;;;;;;3.78;70.50;100729.44;5069124;28;20021;-72
2022/02/08 00:37:45;;;;;;;5.50;2.05;;;;;;;3.78;70.66;100728.59;5069407;28;20036;-72
2022/02/08 00:40:11;;;;;;;13.80;3.25;;;;;;;3.75;70.00;100711.06;5069164;28;20025;-72
2022/02/08 00:42:36;;;;;;;12.77;2.45;;;;;;;3.72;70.31;100710.34;5068879;28;20033;-73
2022/02/08 00:45:25;;;;;;;9.07;2.72;;;;;;;3.84;69.54;100737.06;5069385;28;20032;-72
2022/02/08 00:47:56;;;;;;;12.50;2.70;;;;;;;3.72;70.51;100747.47;5068811;28;20036;-73
2022/02/08 00:50:21;;;;;;;7.90;2.38;;;;;;;3.72;70.28;100737.75;5067541;28;20035;-72
2022/02/08 00:52:47;;;;;;;11.60;3.15;;;;;;;3.71;70.04;100735.16;5068609;28;20028;-72
2022/02/08 00:55:13;;;;;;;12.63;2.47;;;;;;;3.75;70.10;100742.00;5068716;28;20032;-73
2022/02/08 00:57:39;;;;;;;7.13;2.63;;;;;;;3.58;70.49;100736.75;5068463;28;20032;-72
2022/02/08 01:00:06;;;;;;;11.82;2.45;;;;;;;3.69;70.26;100752.94;5068545;28;20024;-73
2022/02/08 01:02:32;;;;;;;11.25;2.78;;;;;;;3.70;70.56;100752.00;5069020;28;20028;-73
2022/02/08 01:05:01;;;;;;;11.55;2.95;;;;;;;3.57;70.78;100754.44;5068545;28;20051;-73
2022/02/08 01:07:27;;;;;;;12.65;3.30;;;;;;;3.57;70.94;100753.56;5068609;28;20137;-72
2022/02/08 01:09:57;;;;;;;6.78;2.58;;;;;;;3.62;70.84;100748.91;5068421;28;20025;-73
2022/02/08 01:12:24;;;;;;;16.30;2.67;;;;;;;3.52;71.10;100740.56;5068758;28;20033;-73
2022/02/08 01:14:52;;;;;;;15.27;2.85;;;;;;;3.61;71.10;100756.00;5066921;28;20035;-73
2022/02/08 01:17:20;;;;;;;11.68;3.75;;;;;;;3.54;71.57;100761.69;5068191;28;22272;-73
2022/02/08 01:19:51;;;;;;;11.13;2.95;;;;;;;3.60;71.50;100762.25;5068886;28;20028;-73
2022/02/08 01:22:17;;;;;;;9.57;2.47;;;;;;;3.47;71.92;100768.25;5068746;28;20095;-72
2022/02/08 01:24:43;;;;;;;12.43;2.55;;;;;;;3.46;71.98;100771.84;5068671;28;20129;-72
2022/02/08 01:27:11;;;;;;;12.20;3.40;;;;;;;3.46;72.54;100779.81;5067307;28;20394;-73
2022/02/08 01:40:11;;;;;;;11.18;2.40;;;;;;;3.46;71.85;100782.47;5071891;28;20036;-68
2022/02/08 01:46:00;;;;;;;7.95;2.25;;;;;;;3.36;73.10;100808.59;5071788;28;20028;-68
2022/02/08 01:48:15;;;;;;;12.45;3.13;;;;;;;3.32;72.76;100800.88;5068424;28;20078;-68
2022/02/08 01:50:42;;;;;;;13.93;2.80;;;;;;;3.42;72.14;100810.91;5071716;28;20112;-69
2022/02/08 01:53:08;;;;;;;8.18;2.22;;;;;;;3.47;71.95;100815.97;5070221;28;20510;-73
2022/02/08 01:55:35;;;;;;;11.88;2.97;;;;;;;3.35;72.54;100821.91;5070640;28;20020;-73
2022/02/08 01:58:02;;;;;;;9.45;2.53;;;;;;;3.11;73.15;100783.38;5071975;28;20134;-73
2022/02/08 02:00:29;;;;;;;11.45;2.97;;;;;;;3.35;72.64;100828.06;5071869;28;20513;-73
2022/02/08 02:02:55;;;;;;;9.85;3.45;;;;;;;3.29;72.71;100832.81;5070228;28;20506;-73
2022/02/08 02:05:21;;;;;;;15.63;2.70;;;;;;;3.32;72.91;100832.69;5071886;28;20056;-73
2022/02/08 02:07:48;;;;;;;8.52;3.13;;;;;;;3.33;72.57;100831.72;5071740;28;20431;-73
2022/02/08 02:10:19;;;;;;;7.60;2.90;;;;;;;3.40;72.42;100849.91;5071916;28;20024;-73
2022/02/08 02:12:55;;;;;;;11.68;2.88;;;;;;;3.35;72.64;100851.09;5072130;28;20062;-73
2022/02/08 02:15:22;;;;;;;11.38;2.92;;;;;;;3.40;72.36;100843.75;5072164;28;20032;-73
2022/02/08 02:17:48;;;;;;;10.30;2.80;;;;;;;3.35;72.41;100849.28;5071789;28;20041;-73
2022/02/08 02:20:14;;;;;;;9.77;3.25;;;;;;;3.29;73.00;100861.97;5072216;28;20028;-73
2022/02/08 02:22:40;;;;;;;9.65;3.00;;;;;;;3.34;72.77;100850.22;5072534;28;20128;-73
2022/02/08 02:25:05;;;;;;;9.77;2.38;;;;;;;3.28;73.20;100863.75;5072618;28;20119;-73
2022/02/08 02:27:31;;;;;;;10.68;2.78;;;;;;;3.20;73.25;100865.06;5072364;28;20514;-73
2022/02/08 02:29:56;;;;;;;11.43;3.05;;;;;;;3.24;72.96;100856.03;5071876;28;20028;-70
2022/02/08 02:32:22;;;;;;;12.00;3.45;;;;;;;3.16;72.98;100853.75;5072125;28;20028;-70
2022/02/08 02:34:49;;;;;;;12.02;2.88;;;;;;;3.18;73.68;100864.28;5072350;28;20430;-73
2022/02/08 02:37:15;;;;;;;10.82;2.70;;;;;;;3.15;73.35;100872.38;5071024;28;20017;-73
2022/02/08 02:39:40;;;;;;;9.48;2.55;;;;;;;3.20;72.69;100873.03;5071221;28;20029;-73
2022/02/08 02:42:14;;;;;;;13.25;3.35;;;;;;;3.15;73.06;100875.03;5071904;28;20529;-73
2022/02/08 02:44:40;;;;;;;11.68;2.55;;;;;;;3.10;73.46;100877.94;5071494;28;20116;-73
2022/02/08 02:47:06;;;;;;;17.30;3.17;;;;;;;3.15;73.29;100894.44;5071423;28;20036;-73
2022/02/08 02:49:31;;;;;;;8.05;3.00;;;;;;;3.12;73.23;100886.66;5071887;28;20020;-73
2022/02/08 02:51:57;;;;;;;16.10;3.15;;;;;;;3.05;73.38;100884.38;5071572;28;20086;-73
2022/02/08 02:54:23;;;;;;;10.13;3.00;;;;;;;3.25;72.71;100902.81;5071657;28;20480;-73
2022/02/08 02:56:48;;;;;;;5.68;2.47;;;;;;;3.20;72.85;100911.00;5071161;28;20028;-73
2022/02/08 02:59:17;;;;;;;8.43;2.13;;;;;;;3.20;71.94;100894.22;5071368;28;20028;-73
2022/02/08 03:18:36;;;;;;;12.55;2.90;;;;;;;3.16;72.75;100962.41;5047880;28;20412;-73
2022/02/08 03:21:03;;;;;;;;;;;;;;;3.18;72.33;100978.25;5054548;28;20071;-72
2022/02/08 03:23:29;;;;;;;7.13;2.40;;;;;;;3.13;72.28;100988.22;5070528;28;19958;-73
2022/02/08 03:25:54;;;;;;;14.80;2.83;;;;;;;3.09;72.80;100984.84;5070787;28;20048;-73
2022/02/08 03:28:20;;;;;;;7.65;2.70;;;;;;;3.07;72.93;100988.50;5071431;28;20077;-73
2022/02/08 03:30:45;;;;;;;16.02;3.17;;;;;;;3.22;72.02;100996.59;5071392;28;20032;-73
2022/02/08 03:33:11;;;;;;;9.75;2.85;;;;;;;3.17;72.18;100998.59;5070278;28;20032;-73
2022/02/08 03:35:37;;;;;;;9.93;2.65;;;;;;;3.15;72.10;100994.28;5069755;28;20499;-73
2022/02/08 03:38:05;;;;;;;12.05;2.67;;;;;;;3.31;71.65;101011.19;5071294;28;20020;-73
2022/02/08 03:43:00;;;;;;;7.78;2.60;;;;;;;3.02;71.59;100983.41;5068674;28;20066;-68
2022/02/08 03:45:26;;;;;;;10.55;3.03;;;;;;;3.19;71.96;101030.34;5067872;28;20075;-68
2022/02/08 03:47:51;;;;;;;9.02;2.22;;;;;;;3.31;71.55;101032.38;5068118;28;20020;-69
2022/02/08 03:50:17;;;;;;;9.48;2.30;;;;;;;3.21;71.57;101031.97;5069076;28;20112;-69
2022/02/08 03:52:42;;;;;;;7.13;1.98;;;;;;;3.34;71.44;101040.19;5067949;28;20020;-69
2022/02/08 03:55:09;;;;;;;11.23;3.28;;;;;;;3.27;71.77;101046.72;5069086;28;20027;-69
2022/02/08 03:57:34;;;;;;;12.98;2.75;;;;;;;3.26;71.44;101040.56;5069340;28;20024;-69
2022/02/08 04:00:00;;;;;;;10.75;2.80;;;;;;;3.27;72.03;101052.91;5069080;28;20036;-69
2022/02/08 04:02:35;;;;;;;12.38;2.65;;;;;;;3.25;71.46;101043.28;5068524;28;20059;-69
2022/02/08 04:05:46;;;;;;;11.02;2.70;;;;;;;3.33;71.57;101062.34;5070035;28;20025;-69
2022/02/08 04:07:54;;;;;;;13.77;3.00;;;;;;;3.20;71.63;101058.56;5066211;28;20146;-69
2022/02/08 04:10:23;;;;;;;9.25;2.38;;;;;;;3.40;70.68;101056.69;5069346;28;20024;-69
2022/02/08 04:34:24;;;;;;;12.57;3.22;;;;;;;3.35;70.60;101106.41;5068380;28;20043;-70
2022/02/08 04:42:24;;;;;;;12.75;2.72;;;;;;;3.35;71.33;101129.44;5068898;28;20166;-68
2022/02/08 04:44:59;;;;;;;10.25;3.00;;;;;;;3.52;70.24;101138.31;5069117;28;20044;-69
2022/02/08 04:47:32;;;;;;;10.23;2.78;;;;;;;3.43;70.28;101133.44;5068948;28;20024;-68
2022/02/08 04:49:58;;;;;;;10.32;2.22;;;;;;;3.30;70.95;101129.63;5068712;28;20046;-69
2022/02/08 04:52:25;;;;;;;12.82;2.63;;;;;;;3.56;70.00;101144.34;5068809;28;20021;-69
2022/02/08 04:55:09;;;;;;;9.40;2.60;;;;;;;3.39;70.63;101145.09;5069070;28;20047;-68
2022/02/08 04:58:13;;;;;;;10.90;2.38;;;;;;;3.42;70.70;101142.31;5067851;28;20035;-68
2022/02/08 05:00:30;;;;;;;15.27;3.15;;;;;;;3.49;70.47;101167.66;5068658;28;20495;-68
2022/02/08 05:28:20;;;;;;;;;;;;;;;3.36;71.81;101194.78;5069762;28;20052;-68
2022/02/08 05:35:43;;;;;;;12.27;2.63;;;;;;;3.50;71.34;101205.59;5070381;28;19965;-73
2022/02/08 05:48:51;;;;;;;15.52;3.22;;;;;;;3.36;71.11;101205.38;5067538;28;20388;-73
2022/02/08 05:51:20;;;;;;;11.93;2.78;;;;;;;3.39;71.01;101219.34;5067717;28;20027;-73
2022/02/08 05:53:46;;;;;;;16.58;3.28;;;;;;;3.39;71.21;101227.28;5067577;28;20491;-68
2022/02/08 05:56:14;;;;;;;12.85;2.90;;;;;;;3.42;71.09;101226.31;5067037;28;20032;-68
2022/02/08 05:58:42;;;;;;;9.98;2.72;;;;;;;3.43;70.70;101228.91;5067163;28;20036;-68
2022/02/08 06:01:08;;;;;;;8.10;2.95;;;;;;;3.32;71.59;101231.16;5068819;28;20028;-68
2022/02/08 06:03:34;;;;;;;14.90;2.50;;;;;;;3.26;71.69;101236.72;5068273;28;20438;-69
2022/02/08 06:05:59;;;;;;;9.02;2.85;;;;;;;3.20;71.20;101226.41;5065277;28;20043;-69
2022/02/08 06:08:25;;;;;;;13.35;3.05;;;;;;;3.21;71.83;101245.78;5066603;28;20105;-69
2022/02/08 06:10:56;;;;;;;11.27;2.53;;;;;;;3.24;70.95;101235.94;5066272;28;20028;-69
2022/02/08 06:13:22;;;;;;;11.77;2.88;;;;;;;3.38;70.93;101251.22;5065439;28;20044;-69
2022/02/08 06:15:49;;;;;;;13.02;3.20;;;;;;;3.33;70.60;101248.78;5069934;28;20487;-69
2022/02/08 06:18:15;;;;;;;11.05;2.75;;;;;;;3.26;70.59;101231.41;5071168;28;20503;-69
2022/02/08 06:20:41;;;;;;;8.55;2.72;;;;;;;3.26;70.62;101249.13;5071860;28;20027;-69
2022/02/08 06:23:06;;;;;;;12.82;3.17;;;;;;;3.21;70.50;101241.38;5071806;28;20509;-69
2022/02/08 06:25:33;;;;;;;13.10;2.95;;;;;;;3.32;70.44;101252.34;5072008;28;20491;-68
2022/02/08 06:27:58;;;;;;;13.10;3.40;;;;;;;3.27;69.94;101256.13;5071818;28;20069;-68
2022/02/08 06:30:24;;;;;;;14.13;3.30;;;;;;;3.29;69.82;101247.19;5068773;28;20463;-68
2022/02/08 06:32:52;;;;;;;18.38;4.30;;;;;;;3.34;70.26;101265.53;5066229;28;20028;-69
2022/02/08 06:35:23;;;;;;;16.25;5.00;;;;;;;3.29;70.61;101264.91;5069068;28;20036;-69
2022/02/08 06:37:48;;;;;;;20.15;5.25;;;;;;;3.48;69.68;101271.97;5070282;28;20024;-69
2022/02/08 06:40:14;;;;;;;15.18;6.30;;;;;;;3.42;69.93;101271.38;5068672;28;20032;-69
2022/02/08 06:42:42;;;;;;;13.70;4.22;;;;;;;3.29;70.47;101268.38;5070439;28;20024;-68
2022/02/08 06:45:09;;;;;;;15.55;4.63;;;;;;;3.34;69.85;101279.66;5070202;28;20028;-68
2022/02/08 06:47:35;;;;;;;15.77;4.47;;;;;;;3.38;70.04;101280.38;5068829;28;20081;-69
2022/02/08 06:50:03;;;;;;;11.23;3.90;;;;;;;3.32;69.83;101289.47;5070131;28;20035;-69
2022/02/08 06:52:28;;;;;;;15.50;4.10;;;;;;;3.36;69.44;101292.84;5069910;28;20016;-69
2022/02/08 06:54:54;;;;;;;12.23;3.95;;;;;;;3.36;69.41;101284.91;5068549;28;20035;-69
2022/02/08 06:57:20;;;;;;;14.80;3.15;;;;;;;3.42;68.43;101290.78;5068819;28;20037;-68
2022/02/08 06:59:54;;;;;;;11.80;3.17;;;;;;;3.37;68.48;101286.63;5070136;28;20025;-68
2022/02/08 07:02:20;;;;;;;32.92;10.73;;;;;;;3.37;67.72;101279.53;5069906;28;20026;-69
2022/02/08 07:04:45;;;;;;;24.45;4.38;;;;;;;3.55;67.35;101293.78;5070209;28;20555;-68
2022/02/08 07:07:15;;;;;;;15.00;3.03;;;;;;;3.62;66.98;101297.91;5070179;28;20037;-68
2022/02/08 07:09:42;;;;;;;13.95;2.97;;;;;;;3.58;66.86;101301.63;5070297;28;20033;-69
2022/02/08 07:12:09;;;;;;;16.65;3.67;;;;;;;3.52;66.44;101293.94;5069262;28;20032;-69
2022/02/08 07:14:34;;;;;;;11.43;3.50;;;;;;;3.64;65.92;101299.53;5068228;28;20146;-69
2022/02/08 07:17:00;;;;;;;12.77;3.90;;;;;;;3.63;65.92;101299.59;5069537;28;20130;-68
2022/02/08 07:19:25;;;;;;;15.60;4.78;;;;;;;3.58;65.60;101283.06;5069708;28;20032;-69
2022/02/08 07:21:51;;;;;;;15.40;3.97;;;;;;;3.66;65.24;101295.03;5069884;28;20066;-68
2022/02/08 07:24:19;;;;;;;24.75;6.85;;;;;;;3.81;64.39;101285.53;5069523;28;20032;-68
2022/02/08 07:26:52;;;;;;;31.88;9.23;;;;;;;3.83;64.41;101302.25;5069294;28;20494;-68
2022/02/08 07:29:18;;;;;;;21.05;7.13;;;;;;;3.90;63.98;101296.59;5069309;28;20027;-68
2022/02/08 07:31:57;;;;;;;17.60;5.00;;;;;;;3.96;63.45;101301.63;5070911;28;20024;-68
2022/02/08 07:39:37;;;;;;;16.48;2.95;;;;;;;4.13;62.27;101300.88;5070531;28;20494;-68
2022/02/08 07:42:04;;;;;;;9.63;2.65;;;;;;;4.30;61.22;101303.59;5068631;28;20028;-68
2022/02/08 07:44:29;;;;;;;9.77;2.67;;;;;;;4.44;59.60;101282.56;5070609;28;20036;-68
2022/02/08 07:46:55;;;;;;;9.00;2.50;;;;;;;4.56;60.48;101300.59;5069974;28;20077;-68
2022/02/08 07:49:20;;;;;;;9.35;2.75;;;;;;;4.61;59.63;101298.56;5068303;28;20115;-68
2022/02/08 07:51:46;;;;;;;9.77;2.20;;;;;;;4.89;58.38;101300.75;5068789;28;20024;-67
2022/02/08 07:54:11;;;;;;;7.68;2.42;;;;;;;4.82;58.96;101301.97;5070406;28;20028;-68
2022/02/08 07:56:37;;;;;;;11.27;2.80;;;;;;;4.96;58.09;101305.69;5070523;28;20120;-68
2022/02/08 07:59:03;;;;;;;9.68;2.17;;;;;;;5.17;56.79;101311.75;5069907;28;20516;-68
2022/02/08 08:01:28;;;;;;;11.65;2.30;;;;;;;5.31;56.20;101318.09;5069890;28;20052;-68
2022/02/08 08:03:54;;;;;;;15.05;3.10;;;;;;;5.44;55.87;101315.66;5069379;28;20034;-67
2022/02/08 08:06:20;;;;;;;10.93;2.72;;;;;;;5.45;55.32;101312.09;5066075;28;20028;-67
2022/02/08 08:08:47;;;;;;;13.90;2.70;;;;;;;5.45;56.06;101322.72;5067599;28;20479;-67
2022/02/08 08:11:20;;;;;;;9.07;2.33;;;;;;;5.43;55.94;101313.94;5066613;28;20418;-67
2022/02/08 08:13:50;;;;;;;12.68;2.45;;;;;;;5.52;55.69;101329.44;5066190;28;20033;-69
2022/02/08 08:21:28;;;;;;;11.63;2.65;;;;;;;5.78;54.30;101332.50;5066486;28;21452;-68
2022/02/08 08:23:54;;;;;;;10.35;3.15;;;;;;;5.75;55.34;101345.97;5067594;28;20472;-68
2022/02/08 08:26:20;;;;;;;15.45;2.60;;;;;;;5.88;54.78;101352.41;5066209;28;20119;-68
2022/02/08 08:28:47;;;;;;;12.40;2.75;;;;;;;5.89;55.00;101347.94;5068363;28;20515;-68
2022/02/08 08:31:13;;;;;;;9.80;2.15;;;;;;;5.90;53.83;101345.19;5066288;28;20032;-68
2022/02/08 08:33:38;;;;;;;9.52;2.15;;;;;;;5.94;53.70;101348.56;5065191;28;20071;-68
2022/02/08 08:36:05;;;;;;;11.38;2.50;;;;;;;6.19;53.26;101356.97;5067170;28;20052;-68
2022/02/08 08:38:32;;;;;;;16.25;3.03;;;;;;;6.08;53.98;101352.22;5067717;28;20112;-68
2022/02/08 08:48:50;;;;;;;12.63;2.20;;;;;;;6.26;52.67;101363.69;5068324;28;20163;-71
2022/02/08 08:51:24;;;;;;;9.75;1.90;;;;;;;6.41;52.24;101365.53;5068990;28;20112;-71
2022/02/08 08:53:51;;;;;;;14.40;3.05;;;;;;;6.36;52.35;101368.44;5068401;28;20028;-71
2022/02/08 08:56:16;;;;;;;11.77;3.03;;;;;;;6.31;52.59;101381.16;5068652;28;20152;-71
2022/02/08 08:58:44;;;;;;;8.63;2.22;;;;;;;6.52;51.34;101377.31;5068579;28;20058;-71
2022/02/08 09:01:14;;;;;;;6.63;2.35;;;;;;;6.49;51.62;101395.28;5064713;28;20036;-71
2022/02/08 09:03:40;;;;;;;17.10;2.85;;;;;;;6.57;50.78;101377.94;5066829;28;20036;-71
2022/02/08 09:06:07;;;;;;;12.57;2.47;;;;;;;6.53;51.50;101379.06;5068187;28;20032;-71
2022/02/08 09:08:36;;;;;;;12.88;2.30;;;;;;;6.58;51.37;101384.97;5068425;28;20388;-71
2022/02/08 09:14:11;;;;;;;10.18;1.95;;;;;;;6.63;50.91;101379.41;5059355;28;20055;-71
2022/02/08 09:16:44;;;;;;;9.95;2.20;;;;;;;6.72;50.56;101374.44;5068205;28;20141;-71
2022/02/08 09:29:36;;;;;;;9.90;2.35;;;;;;;6.83;50.77;101385.38;5068188;28;20035;-71
2022/02/08 09:32:12;;;;;;;16.60;2.78;;;;;;;6.99;49.86;101393.34;5067372;28;20126;-71
2022/02/08 09:34:41;;;;;;;8.05;2.25;;;;;;;6.93;50.46;101396.38;5067372;28;20028;-71
2022/02/08 09:37:08;;;;;;;7.35;2.10;;;;;;;7.03;49.22;101388.72;5068356;28;20024;-71
2022/02/08 09:39:34;;;;;;;6.35;1.83;;;;;;;7.03;49.04;101387.78;5065786;28;20388;-70
2022/02/08 09:42:02;;;;;;;10.98;1.85;;;;;;;7.15;48.38;101375.53;5065735;28;20041;-71
2022/02/08 09:44:31;;;;;;;13.35;3.53;;;;;;;7.07;48.75;101390.25;5067446;28;20085;-71
2022/02/08 09:47:01;;;;;;;11.05;2.40;;;;;;;7.18;48.25;101385.16;5067338;28;20488;-70
2022/02/08 09:49:28;;;;;;;8.30;1.65;;;;;;;7.24;49.08;101393.72;5066432;28;20020;-71
2022/02/08 09:51:55;;;;;;;7.45;2.10;;;;;;;7.14;49.00;101383.63;5069951;28;20029;-71
2022/02/08 09:54:22;;;;;;;9.57;2.20;;;;;;;7.30;48.53;101395.16;5071791;28;20029;-71
2022/02/08 09:56:48;;;;;;;9.32;1.98;;;;;;;7.23;48.93;101369.78;5071916;28;20158;-71
2022/02/08 09:59:13;;;;;;;8.75;2.03;;;;;;;7.34;48.61;101384.22;5071819;28;20067;-71
2022/02/08 10:01:39;;;;;;;12.18;2.60;;;;;;;7.42;48.37;101382.00;5070348;28;20060;-70
2022/02/08 10:04:05;;;;;;;8.63;2.42;;;;;;;7.62;48.30;101384.34;5069965;28;20514;-73
2022/02/08 10:06:31;;;;;;;12.55;2.47;;;;;;;7.82;47.43;101372.47;5071738;28;20078;-70
2022/02/08 10:08:58;;;;;;;10.32;2.20;;;;;;;7.95;47.44;101357.44;5071471;28;20409;-70
2022/02/08 10:11:28;;;;;;;11.85;2.33;;;;;;;8.09;47.55;101358.31;5070092;28;20032;-70
2022/02/08 10:14:18;;;;;;;9.25;2.10;;;;;;;8.21;47.35;101370.94;5068984;28;20050;-70
2022/02/08 10:22:29;;;;;;;9.35;2.13;;;;;;;8.83;45.07;101370.56;5071428;28;20492;-70
2022/02/08 10:25:10;;;;;;;8.23;2.22;;;;;;;8.86;44.21;101351.63;5067462;28;20063;-70
2022/02/08 10:27:43;;;;;;;10.90;2.55;;;;;;;8.83;44.29;101373.22;5070767;28;20036;-70
2022/02/08 10:38:39;;;;;;;;;;;;;;;8.53;43.74;101364.47;5071866;28;20067;-70
2022/02/08 10:41:17;;;;;;;9.77;2.13;;;;;;;8.54;43.24;101366.19;5070500;28;19916;-70
2022/02/08 10:43:55;;;;;;;17.02;2.03;;;;;;;8.49;43.71;101359.41;5070693;28;20043;-70
2022/02/08 10:46:22;;;;;;;8.15;2.53;;;;;;;8.52;43.27;101351.22;5071289;28;20036;-70
2022/02/08 10:49:08;;;;;;;8.10;2.15;;;;;;;8.57;43.04;101351.75;5070713;28;20024;-70
2022/02/08 10:51:43;;;;;;;9.75;1.73;;;;;;;8.59;43.07;101352.53;5068881;28;20543;-70
2022/02/08 10:54:15;;;;;;;8.52;1.90;;;;;;;8.60;43.04;101356.91;5070278;28;20028;-70
2022/02/08 10:56:48;;;;;;;13.07;2.22;;;;;;;8.58;43.37;101356.16;5068792;28;20028;-70
2022/02/08 10:59:19;;;;;;;10.55;2.28;;;;;;;8.63;43.59;101348.69;5068121;28;20032;-70
2022/02/08 11:01:58;;;;;;;11.90;2.50;;;;;;;8.84;43.30;101336.66;5067807;28;20056;-70
2022/02/08 11:04:45;;;;;;;18.10;2.33;;;;;;;8.84;43.38;101347.34;5069270;28;20039;-70
2022/02/08 11:07:29;;;;;;;5.97;1.98;;;;;;;8.72;44.05;101340.09;5068739;28;20024;-70
2022/02/08 11:10:55;;;;;;;9.80;1.65;;;;;;;8.69;43.96;101345.66;5069884;28;20115;-70
2022/02/08 11:12:55;;;;;;;8.05;2.67;;;;;;;8.82;44.88;101344.78;5065866;28;20055;-70
2022/02/08 11:15:55;;;;;;;4.55;1.52;;;;;;;8.80;45.10;101351.16;5070358;28;20056;-70
2022/02/08 11:18:33;;;;;;;10.32;2.38;;;;;;;8.76;45.59;101349.63;5069044;28;20055;-70
2022/02/08 11:21:29;;;;;;;6.70;2.00;;;;;;;8.61;45.35;101327.41;5070014;28;20032;-70
2022/02/08 11:26:39;;;;;;;8.85;1.95;;;;;;;8.57;45.15;101327.69;5070248;28;20042;-70
2022/02/08 11:29:37;;;;;;;6.65;1.85;;;;;;;8.65;44.95;101322.72;5068653;28;20021;-70
2022/02/08 11:32:16;;;;;;;10.20;2.63;;;;;;;8.63;44.85;101327.31;5069708;28;20040;-70
2022/02/08 11:48:49;;;;;;;10.45;2.30;;;;;;;8.95;45.81;101285.97;5067661;28;20036;-70
2022/02/08 11:57:35;;;;;;;7.55;2.35;;;;;;;9.02;45.80;101306.00;5069424;28;20036;-70
2022/02/08 12:05:16;;;;;;;12.38;2.53;;;;;;;9.29;44.58;101314.91;5069621;28;20064;-70
2022/02/08 12:07:50;;;;;;;7.47;2.50;;;;;;;9.21;45.36;101323.44;5069233;28;20487;-70
2022/02/08 12:30:25;;;;;;;11.35;2.80;;;;;;;9.21;47.07;101330.59;5068893;28;20040;-70
2022/02/08 12:32:18;;;;;;;6.10;2.40;;;;;;;9.06;47.43;101324.44;5067841;28;20043;-70
2022/02/08 14:01:46;;;;;;;7.13;2.22;;;;;;;9.22;43.19;101308.22;5071181;28;20043;-68
2022/02/08 14:17:33;;;;;;;7.45;2.42;;;;;;;9.13;44.64;101274.91;5070559;28;20035;-67
2022/02/08 14:25:59;;;;;;;11.63;2.85;;;;;;;9.06;45.28;101262.88;5050811;28;20527;-70
2022/02/08 15:07:25;;;;;;;10.00;2.95;;;;;;;8.95;44.87;101307.38;5070277;28;20086;-70
2022/02/08 15:09:53;;;;;;;6.40;2.70;;;;;;;8.77;45.60;101306.75;5069804;28;20043;-70
2022/02/08 15:12:20;;;;;;;7.93;3.25;;;;;;;8.82;46.12;101315.34;5070282;28;20107;-70
2022/02/08 15:15:13;;;;;;;11.88;3.90;;;;;;;8.79;46.25;101318.22;5070029;28;20040;-70
2022/02/08 15:17:34;;;;;;;6.97;3.33;;;;;;;8.69;46.83;101314.41;5068291;28;20161;-70
2022/02/08 15:20:03;;;;;;;11.77;3.38;;;;;;;8.62;47.11;101309.56;5069979;28;20024;-70
2022/02/08 15:22:28;;;;;;;7.95;3.30;;;;;;;8.50;47.42;101295.16;5070296;28;20082;-70
2022/02/08 15:24:54;;;;;;;9.55;3.13;;;;;;;8.59;46.93;101315.97;5069740;28;20028;-70
2022/02/08 15:27:21;;;;;;;15.50;4.30;;;;;;;8.66;47.23;101303.91;5068171;28;20025;-70
2022/02/08 15:29:50;;;;;;;11.48;3.55;;;;;;;8.58;47.42;101298.19;5067371;28;20077;-70
2022/02/08 15:32:15;;;;;;;7.32;3.35;;;;;;;8.58;47.93;101298.19;5069687;28;20089;-70
2022/02/08 15:34:45;;;;;;;7.82;3.83;;;;;;;8.57;47.47;101303.63;5069755;28;20024;-70
2022/02/08 15:37:11;;;;;;;10.02;3.55;;;;;;;8.59;47.66;101299.06;5068249;28;20028;-70
2022/02/08 15:39:37;;;;;;;11.65;3.78;;;;;;;8.68;48.14;101298.47;5068538;28;20028;-70
2022/02/08 15:42:03;;;;;;;8.13;3.20;;;;;;;8.54;48.11;101294.00;5069354;28;20044;-70
2022/02/08 15:44:28;;;;;;;7.78;3.08;;;;;;;8.52;48.50;101301.25;5070100;28;20036;-70
2022/02/08 15:46:54;;;;;;;15.02;3.60;;;;;;;8.64;48.35;101286.25;5069425;28;20028;-70
2022/02/08 15:49:20;;;;;;;13.02;4.10;;;;;;;8.54;48.38;101285.09;5069279;28;20020;-70
2022/02/08 15:51:53;;;;;;;11.32;4.00;;;;;;;8.66;48.56;101289.69;5068036;28;20550;-70
2022/02/08 16:07:02;;;;;;;6.85;2.60;;;;;;;8.41;48.69;101322.47;5065079;28;20128;-70
2022/02/08 16:12:09;;;;;;;11.73;3.78;;;;;;;8.20;48.96;101310.44;5068902;28;20710;-70
2022/02/08 16:20:08;;;;;;;11.57;3.22;;;;;;;8.25;48.67;101334.19;5068464;28;20065;-70
2022/02/08 16:28:13;;;;;;;11.98;3.67;;;;;;;8.14;49.15;101309.94;5068634;28;20040;-70
2022/02/08 16:54:59;;;;;;;10.30;2.90;;;;;;;8.08;50.16;101329.88;5066890;28;20364;-70
2022/02/08 16:57:35;;;;;;;12.15;3.22;;;;;;;7.96;50.51;101319.09;5066561;28;20032;-71
2022/02/08 17:00:04;;;;;;;9.93;2.38;;;;;;;7.98;50.60;101293.13;5065501;28;20078;-70
2022/02/08 17:02:31;;;;;;;6.97;2.83;;;;;;;8.23;50.65;101317.41;5066920;28;20040;-70
2022/02/08 17:05:00;;;;;;;7.05;2.42;;;;;;;8.17;50.57;101309.75;5066788;28;20105;-70
2022/02/08 17:07:26;;;;;;;7.47;2.88;;;;;;;8.10;50.49;101306.56;5064444;28;20102;-70
2022/02/08 17:09:56;;;;;;;7.63;3.00;;;;;;;8.06;51.32;101298.88;5060629;28;20117;-71
2022/02/08 17:45:33;;;;;;;6.78;2.67;;;;;;;7.97;53.11;101294.94;5066358;28;20051;-70
2022/02/08 17:47:56;;;;;;;9.45;2.50;;;;;;;7.96;53.45;101284.38;5066627;28;20031;-70
2022/02/08 17:50:22;;;;;;;7.82;2.15;;;;;;;7.87;53.66;101292.94;5065865;28;20070;-70
2022/02/08 17:52:48;;;;;;;8.32;2.35;;;;;;;7.88;54.02;101297.31;5065116;28;20024;-71
2022/02/08 17:55:15;;;;;;;10.80;3.08;;;;;;;7.82;54.29;101281.66;5065594;28;20535;-70
2022/02/08 17:57:41;;;;;;;9.88;3.63;;;;;;;7.91;54.64;101283.78;5066354;28;20383;-71
2022/02/08 18:00:10;;;;;;;8.38;2.75;;;;;;;7.93;54.43;101277.38;5066101;28;20040;-71
2022/02/08 18:02:37;;;;;;;7.20;2.90;;;;;;;7.87;55.32;101279.59;5062905;28;20028;-71
2022/02/08 18:05:02;;;;;;;8.48;2.90;;;;;;;7.86;55.67;101278.72;5066563;28;20044;-71
2022/02/08 18:07:29;;;;;;;6.57;2.65;;;;;;;7.90;54.72;101277.56;5064607;28;20724;-71
2022/02/08 18:09:55;;;;;;;6.75;2.35;;;;;;;7.86;55.46;101269.84;5066370;28;20047;-71
2022/02/08 18:12:24;;;;;;;7.95;2.58;;;;;;;7.88;55.53;101257.25;5069317;28;20740;-71
2022/02/08 18:14:54;;;;;;;5.28;2.05;;;;;;;7.77;55.62;101267.75;5070116;28;20872;-70
2022/02/08 18:17:27;;;;;;;7.57;2.60;;;;;;;7.77;55.59;101255.25;5069601;28;20035;-70
2022/02/08 18:20:34;;;;;;;6.55;1.98;;;;;;;7.85;56.21;101271.69;5068372;28;20039;-70
2022/02/08 18:23:10;;;;;;;7.55;2.22;;;;;;;7.80;55.97;101268.41;5068379;28;20165;-71
2022/02/08 18:25:49;;;;;;;11.23;2.97;;;;;;;7.83;56.30;101267.38;5069856;28;20423;-70
2022/02/08 18:28:32;;;;;;;9.88;2.80;;;;;;;7.88;57.06;101275.97;5069551;28;20035;-71
2022/02/08 18:56:30;;;;;;;10.18;2.92;;;;;;;7.69;61.99;101310.06;5069563;28;20438;-70
2022/02/08 19:09:15;;;;;;;9.82;3.38;;;;;;;7.90;62.20;101303.44;5068765;28;20044;-70
2022/02/08 19:11:55;;;;;;;9.38;2.65;;;;;;;7.92;62.07;101301.53;5068165;28;20028;-70
2022/02/08 19:15:12;;;;;;;8.45;2.67;;;;;;;7.93;62.49;101293.41;5068135;28;20475;-70
2022/02/08 19:20:10;;;;;;;8.52;2.17;;;;;;;7.86;62.20;101281.38;5069932;28;20535;-70
2022/02/08 19:22:35;;;;;;;4.43;2.67;;;;;;;7.86;62.36;101283.19;5069130;28;20042;-71